Time;durP1;ratioP1;P1;durP2;ratioP2;P2;SDS_P1;SDS_P2;PMS_P1;PMS_P2;Temp;Humidity;BMP_temperature;BMP_pressure;BME280_temperature;BME280_humidity;BME280_pressure;Samples;Min_cycle;Max_cycle;Signal;HPM_P1;HPM_P2
2022/07/06 00:00:27;;;;;;;5.07;0.80;;;15.50;99.90;;;;;;4993457;28;20050;-82
2022/07/06 00:03:13;;;;;;;5.07;1.00;;;15.50;99.90;;;;;;4993534;28;20050;-83
2022/07/06 00:06:00;;;;;;;6.93;0.93;;;15.60;99.90;;;;;;4975755;28;20057;-83
2022/07/06 00:08:46;;;;;;;5.70;0.70;;;15.60;99.90;;;;;;4994221;28;20058;-83
2022/07/06 00:11:32;;;;;;;2.90;0.73;;;15.60;99.90;;;;;;4977537;28;20082;-83
2022/07/06 00:14:18;;;;;;;7.95;1.33;;;15.60;99.90;;;;;;4977095;28;20557;-84
2022/07/06 00:17:05;;;;;;;6.85;0.73;;;15.60;99.90;;;;;;4962759;28;20049;-82
2022/07/06 00:19:51;;;;;;;4.95;0.90;;;15.70;99.90;;;;;;4975725;28;20074;-83
2022/07/06 00:22:37;;;;;;;3.65;0.70;;;15.70;99.90;;;;;;4975919;28;20121;-85
2022/07/06 00:25:23;;;;;;;6.72;1.02;;;15.70;99.90;;;;;;4965836;28;20086;-85
2022/07/06 00:28:09;;;;;;;5.93;1.10;;;15.70;99.90;;;;;;4993218;28;20046;-83
2022/07/06 00:30:55;;;;;;;4.97;1.05;;;15.60;99.90;;;;;;4975897;28;20077;-84
2022/07/06 00:33:42;;;;;;;3.78;0.90;;;15.70;99.90;;;;;;4979911;28;20395;-83
2022/07/06 00:36:28;;;;;;;8.05;1.20;;;15.70;99.90;;;;;;4976770;28;20047;-84
2022/07/06 00:39:14;;;;;;;10.38;1.20;;;15.70;99.90;;;;;;4977398;28;20046;-83
2022/07/06 00:42:00;;;;;;;9.38;1.38;;;15.70;99.90;;;;;;4978859;28;20413;-83
2022/07/06 00:44:47;;;;;;;6.82;0.90;;;15.50;99.90;;;;;;4974804;28;20050;-83
2022/07/06 00:47:33;;;;;;;7.88;1.27;;;15.40;99.90;;;;;;4981393;28;20155;-82
2022/07/06 00:50:22;;;;;;;6.97;0.80;;;15.30;99.90;;;;;;4993833;28;20050;-84
2022/07/06 00:53:09;;;;;;;3.50;0.63;;;15.20;99.90;;;;;;4964417;28;20117;-83
2022/07/06 00:55:56;;;;;;;6.20;1.25;;;15.10;99.90;;;;;;4977550;28;20446;-84
2022/07/06 00:58:42;;;;;;;4.40;0.80;;;15.10;99.90;;;;;;4977005;28;20513;-84
2022/07/06 01:01:28;;;;;;;7.10;0.85;;;15.10;99.90;;;;;;4977069;28;20049;-83
2022/07/06 01:04:14;;;;;;;4.03;0.60;;;15.00;99.90;;;;;;4977408;28;20046;-83
2022/07/06 01:07:01;;;;;;;3.85;0.55;;;15.00;99.90;;;;;;4967458;28;20054;-83
2022/07/06 01:09:47;;;;;;;4.68;1.00;;;15.00;99.90;;;;;;4997415;28;20137;-83
2022/07/06 01:12:38;;;;;;;5.72;1.10;;;15.00;99.90;;;;;;4995715;28;20050;-84
2022/07/06 01:15:25;;;;;;;7.35;0.95;;;15.00;99.90;;;;;;4974279;28;20057;-80
2022/07/06 01:18:12;;;;;;;6.65;1.00;;;15.00;99.90;;;;;;4976575;28;20409;-83
2022/07/06 01:21:10;;;;;;;6.75;0.95;;;15.00;99.90;;;;;;4995603;28;20413;-84
2022/07/06 01:23:56;;;;;;;6.28;1.10;;;14.90;99.90;;;;;;4992494;28;20104;-83
2022/07/06 01:26:42;;;;;;;6.32;1.08;;;14.90;99.90;;;;;;4979157;28;20129;-83
2022/07/06 01:29:29;;;;;;;10.27;1.25;;;14.80;99.90;;;;;;4992850;28;20046;-83
2022/07/06 01:32:15;;;;;;;5.30;0.63;;;14.80;99.90;;;;;;4992193;28;20050;-83
2022/07/06 01:35:01;;;;;;;6.20;0.98;;;14.80;99.90;;;;;;4993330;28;20061;-83
2022/07/06 01:37:48;;;;;;;7.20;1.25;;;14.70;99.90;;;;;;4979879;28;20141;-82
2022/07/06 01:40:34;;;;;;;4.43;0.85;;;14.70;99.90;;;;;;4992028;28;20046;-82
2022/07/06 01:43:20;;;;;;;10.98;0.70;;;14.60;99.90;;;;;;4991986;28;20074;-83
2022/07/06 01:46:06;;;;;;;3.53;0.90;;;14.60;99.90;;;;;;4973705;28;20057;-83
2022/07/06 01:48:52;;;;;;;3.65;0.60;;;14.50;99.90;;;;;;4975310;28;20054;-82
2022/07/06 01:51:39;;;;;;;2.95;0.50;;;14.50;99.90;;;;;;4991066;28;20054;-83
2022/07/06 01:54:25;;;;;;;2.38;0.70;;;14.50;99.90;;;;;;4992571;28;20467;-83
2022/07/06 01:57:11;;;;;;;4.90;0.70;;;14.40;99.90;;;;;;4960907;28;20133;-83
2022/07/06 01:59:58;;;;;;;5.07;1.40;;;14.40;99.90;;;;;;4960813;28;20080;-83
2022/07/06 02:02:44;;;;;;;7.18;1.85;;;14.40;99.90;;;;;;4974024;28;20054;-84
2022/07/06 02:05:30;;;;;;;4.32;0.57;;;14.40;99.90;;;;;;4973548;28;20046;-82
2022/07/06 02:08:16;;;;;;;5.35;0.65;;;14.40;99.90;;;;;;4991933;28;20069;-84
2022/07/06 02:11:11;;;;;;;3.45;0.80;;;14.40;99.90;;;;;;4975356;28;20101;-81
2022/07/06 02:13:57;;;;;;;2.80;0.52;;;14.30;99.90;;;;;;4973484;28;20133;-82
2022/07/06 02:16:43;;;;;;;4.78;0.60;;;14.40;99.90;;;;;;4992039;28;20581;-82
2022/07/06 02:19:29;;;;;;;2.85;0.40;;;14.30;99.90;;;;;;4991721;28;20050;-81
2022/07/06 02:22:15;;;;;;;4.13;0.60;;;14.30;99.90;;;;;;4990953;28;20418;-82
2022/07/06 02:25:02;;;;;;;5.97;0.70;;;14.30;99.90;;;;;;4991048;28;20054;-82
2022/07/06 02:27:48;;;;;;;2.63;0.70;;;14.30;99.90;;;;;;4991875;28;20060;-82
2022/07/06 02:30:34;;;;;;;7.78;0.93;;;14.20;99.90;;;;;;4991369;28;20050;-82
2022/07/06 02:33:20;;;;;;;4.13;0.75;;;14.20;99.90;;;;;;4974900;28;20065;-82
2022/07/06 02:36:07;;;;;;;3.38;0.50;;;14.30;99.90;;;;;;4989690;28;20050;-83
2022/07/06 02:38:53;;;;;;;3.92;0.50;;;14.30;99.90;;;;;;4973529;28;20116;-81
2022/07/06 02:41:39;;;;;;;8.93;0.80;;;14.30;99.90;;;;;;4991835;28;20042;-84
2022/07/06 02:44:25;;;;;;;4.95;0.50;;;14.20;99.90;;;;;;4979134;28;20050;-82
2022/07/06 02:47:12;;;;;;;5.63;0.93;;;14.30;99.90;;;;;;4998747;28;20046;-83
2022/07/06 02:49:58;;;;;;;3.20;0.43;;;14.20;99.90;;;;;;4977728;28;20057;-83
2022/07/06 02:52:44;;;;;;;4.53;0.70;;;14.20;99.90;;;;;;4980711;28;20049;-82
2022/07/06 02:55:30;;;;;;;3.75;0.90;;;14.20;99.90;;;;;;4994959;28;20062;-83
2022/07/06 02:58:17;;;;;;;7.07;1.08;;;14.20;99.90;;;;;;4995408;28;20043;-83
2022/07/06 03:01:03;;;;;;;4.35;0.70;;;14.20;99.90;;;;;;4997418;28;20077;-81
2022/07/06 03:03:49;;;;;;;8.32;1.00;;;14.20;99.90;;;;;;4976803;28;20057;-82
2022/07/06 03:06:35;;;;;;;4.70;0.75;;;14.20;99.90;;;;;;4995669;28;20073;-82
2022/07/06 03:09:22;;;;;;;5.78;0.63;;;14.20;99.90;;;;;;4976985;28;20070;-83
2022/07/06 03:12:08;;;;;;;11.15;1.05;;;14.20;99.90;;;;;;4994503;28;20050;-84
2022/07/06 03:14:54;;;;;;;8.25;1.17;;;14.20;99.90;;;;;;4977557;28;20046;-83
2022/07/06 03:17:40;;;;;;;5.60;1.13;;;14.20;99.90;;;;;;4994738;28;20054;-82
2022/07/06 03:20:27;;;;;;;3.42;0.55;;;14.20;99.90;;;;;;4996022;28;20046;-83
2022/07/06 03:23:13;;;;;;;3.88;0.75;;;14.20;99.90;;;;;;4977248;28;20050;-82
2022/07/06 03:25:59;;;;;;;3.90;0.50;;;14.20;99.90;;;;;;4977369;28;20050;-83
2022/07/06 03:28:45;;;;;;;7.00;0.85;;;14.20;99.90;;;;;;4996549;28;20050;-84
2022/07/06 03:31:31;;;;;;;10.75;1.38;;;14.30;99.90;;;;;;4963065;28;20503;-82
2022/07/06 03:34:18;;;;;;;3.78;0.70;;;14.40;99.90;;;;;;4979911;28;20050;-81
2022/07/06 03:37:04;;;;;;;4.78;0.68;;;14.50;99.90;;;;;;4976269;28;20499;-83
2022/07/06 03:39:50;;;;;;;3.20;0.70;;;14.50;99.90;;;;;;4978194;28;20050;-82
2022/07/06 03:42:37;;;;;;;5.03;0.70;;;14.50;99.90;;;;;;4997190;28;20061;-83
2022/07/06 03:45:23;;;;;;;8.20;1.90;;;14.50;99.90;;;;;;4994113;28;20060;-84
2022/07/06 03:48:09;;;;;;;2.97;0.50;;;14.50;99.90;;;;;;4976893;28;20050;-82
2022/07/06 03:50:55;;;;;;;5.05;0.80;;;14.40;99.90;;;;;;4992997;28;20065;-82
2022/07/06 03:53:41;;;;;;;6.68;0.82;;;14.30;99.90;;;;;;4976274;28;20446;-83
2022/07/06 03:56:28;;;;;;;4.35;0.70;;;14.30;99.90;;;;;;4993863;28;20085;-83
2022/07/06 03:59:14;;;;;;;4.28;0.60;;;14.20;99.90;;;;;;4964947;28;20050;-85
2022/07/06 04:02:01;;;;;;;3.92;1.35;;;14.10;99.90;;;;;;4993063;28;20161;-83
2022/07/06 04:04:47;;;;;;;4.63;0.50;;;14.10;99.90;;;;;;4993366;28;20056;-84
2022/07/06 04:07:33;;;;;;;4.78;0.60;;;14.00;99.90;;;;;;4977431;28;20051;-83
2022/07/06 04:10:19;;;;;;;6.72;0.80;;;14.00;99.90;;;;;;4963719;28;20108;-83
2022/07/06 04:13:06;;;;;;;5.22;0.63;;;14.10;99.90;;;;;;4976192;28;20061;-83
2022/07/06 04:15:52;;;;;;;4.57;0.70;;;14.10;99.90;;;;;;4994601;28;20117;-83
2022/07/06 04:18:38;;;;;;;3.22;1.02;;;14.10;99.90;;;;;;4976668;28;20093;-83
2022/07/06 04:21:24;;;;;;;2.83;0.50;;;14.20;99.90;;;;;;4993441;28;20113;-84
2022/07/06 04:24:11;;;;;;;4.40;0.80;;;14.30;99.90;;;;;;4994753;28;20057;-84
2022/07/06 04:26:57;;;;;;;9.60;1.00;;;14.30;99.90;;;;;;4993136;28;20101;-82
2022/07/06 04:29:43;;;;;;;3.53;0.50;;;14.40;99.90;;;;;;4993242;28;20053;-84
2022/07/06 04:32:29;;;;;;;3.33;0.50;;;14.40;99.90;;;;;;4962098;28;20051;-83
2022/07/06 04:35:15;;;;;;;6.85;1.98;;;14.50;99.90;;;;;;4977878;28;20408;-84
2022/07/06 04:38:01;;;;;;;5.07;0.60;;;14.60;99.90;;;;;;4975289;28;20046;-84
2022/07/06 04:40:47;;;;;;;7.40;1.00;;;14.70;99.90;;;;;;4992232;28;20501;-85
2022/07/06 04:43:33;;;;;;;3.13;0.60;;;14.80;99.90;;;;;;4975033;28;20113;-82
2022/07/06 04:46:20;;;;;;;6.57;0.75;;;14.80;99.90;;;;;;4974929;28;20043;-83
2022/07/06 04:49:06;;;;;;;4.03;0.63;;;14.90;99.90;;;;;;4976184;28;20109;-83
2022/07/06 04:51:53;;;;;;;3.45;0.57;;;14.90;99.90;;;;;;4993445;28;20152;-82
2022/07/06 04:54:39;;;;;;;3.58;0.70;;;15.00;99.90;;;;;;4992170;28;20604;-83
2022/07/06 04:57:25;;;;;;;4.53;0.73;;;15.10;99.90;;;;;;4992437;28;20050;-83
2022/07/06 05:00:12;;;;;;;5.70;0.85;;;15.30;99.90;;;;;;4993069;28;20108;-83
2022/07/06 05:02:58;;;;;;;4.78;1.20;;;15.50;99.90;;;;;;4978341;28;20412;-85
2022/07/06 05:05:44;;;;;;;7.40;1.85;;;15.60;99.90;;;;;;4963904;28;20050;-83
2022/07/06 05:08:31;;;;;;;3.88;0.63;;;15.70;99.90;;;;;;4979116;28;20507;-83
2022/07/06 05:11:17;;;;;;;4.32;0.90;;;15.80;99.90;;;;;;4962929;28;20058;-84
2022/07/06 05:14:04;;;;;;;4.30;0.70;;;16.00;99.90;;;;;;4993171;28;20560;-81
2022/07/06 05:16:50;;;;;;;3.92;0.93;;;16.20;99.90;;;;;;4993587;28;20042;-83
2022/07/06 05:19:36;;;;;;;6.03;0.60;;;16.40;99.90;;;;;;4994825;28;20425;-81
2022/07/06 05:22:24;;;;;;;5.03;1.55;;;16.40;99.90;;;;;;4975308;28;20053;-83
2022/07/06 05:25:10;;;;;;;6.80;0.93;;;16.40;99.90;;;;;;4993023;28;20050;-82
2022/07/06 05:27:56;;;;;;;4.00;0.57;;;16.30;99.90;;;;;;4992443;28;20502;-81
2022/07/06 05:30:42;;;;;;;5.47;0.75;;;16.40;99.90;;;;;;4992030;28;20065;-82
2022/07/06 05:33:28;;;;;;;4.80;1.23;;;16.40;99.90;;;;;;4993830;28;20051;-83
2022/07/06 05:36:15;;;;;;;7.97;1.88;;;16.40;99.90;;;;;;4991397;28;20046;-85
2022/07/06 05:39:01;;;;;;;6.20;0.90;;;16.50;99.90;;;;;;4975863;28;20061;-84
2022/07/06 05:41:47;;;;;;;5.13;1.45;;;16.50;99.90;;;;;;4974836;28;20193;-84
2022/07/06 05:44:33;;;;;;;6.97;1.15;;;16.60;99.90;;;;;;4992771;28;20065;-81
2022/07/06 05:50:25;;;;;;;3.93;0.40;;;16.50;99.90;;;;;;4992426;28;20122;-85
2022/07/06 05:53:11;;;;;;;3.63;0.55;;;16.50;99.90;;;;;;4992346;28;20054;-83
2022/07/06 05:55:57;;;;;;;3.58;0.60;;;16.50;99.90;;;;;;4992099;28;20138;-84
2022/07/06 05:58:43;;;;;;;6.22;0.70;;;16.60;99.90;;;;;;4993254;28;20113;-84
2022/07/06 06:01:30;;;;;;;3.83;0.80;;;16.60;99.90;;;;;;4978263;28;20052;-84
2022/07/06 06:04:16;;;;;;;3.03;0.70;;;16.80;99.90;;;;;;4992915;28;20062;-84
2022/07/06 06:07:02;;;;;;;3.92;0.68;;;17.10;99.90;;;;;;4977600;28;20042;-83
2022/07/06 06:09:49;;;;;;;2.55;0.35;;;17.40;99.90;;;;;;4991315;28;20096;-83
2022/07/06 06:12:35;;;;;;;5.30;0.60;;;17.60;99.90;;;;;;4991481;28;20178;-82
2022/07/06 06:15:21;;;;;;;4.18;1.02;;;17.80;99.90;;;;;;4993454;28;20422;-82
2022/07/06 06:18:08;;;;;;;7.18;1.20;;;17.90;99.90;;;;;;4974630;28;20038;-82
2022/07/06 06:20:56;;;;;;;6.28;0.93;;;17.70;99.90;;;;;;4997975;28;20046;-81
2022/07/06 06:23:42;;;;;;;3.97;0.65;;;17.60;99.90;;;;;;4984017;28;20050;-81
2022/07/06 06:26:29;;;;;;;6.15;0.73;;;17.70;99.90;;;;;;4998043;28;20046;-82
2022/07/06 06:29:15;;;;;;;2.53;0.68;;;17.80;99.90;;;;;;4983081;28;20065;-84
2022/07/06 06:32:01;;;;;;;6.35;0.75;;;17.80;99.90;;;;;;4985963;28;20046;-82
2022/07/06 06:34:47;;;;;;;4.05;0.52;;;17.60;99.90;;;;;;5007354;28;20046;-83
2022/07/06 06:37:36;;;;;;;6.72;0.77;;;17.50;99.90;;;;;;5008035;28;20400;-83
2022/07/06 06:40:22;;;;;;;5.60;0.60;;;17.60;99.90;;;;;;5005579;28;20062;-84
2022/07/06 06:43:09;;;;;;;5.07;1.02;;;17.50;99.90;;;;;;4989836;28;20088;-85
2022/07/06 06:45:55;;;;;;;2.65;0.60;;;17.50;99.90;;;;;;4983051;28;20112;-84
2022/07/06 06:48:41;;;;;;;6.03;0.95;;;17.80;99.90;;;;;;4997358;28;20047;-83
2022/07/06 06:51:28;;;;;;;11.30;1.23;;;17.90;99.90;;;;;;4997250;28;20106;-84
2022/07/06 06:54:14;;;;;;;1.88;0.45;;;18.00;99.90;;;;;;4983557;28;20046;-84
2022/07/06 06:57:00;;;;;;;4.15;0.57;;;18.10;99.70;;;;;;4980492;28;20521;-84
2022/07/06 06:59:46;;;;;;;3.08;0.40;;;18.30;99.30;;;;;;4998449;28;20465;-84
2022/07/06 07:02:32;;;;;;;3.28;0.50;;;18.60;99.20;;;;;;4982182;28;20050;-82
2022/07/06 07:05:18;;;;;;;5.05;0.90;;;18.50;98.70;;;;;;4980472;28;20081;-85
2022/07/06 07:08:05;;;;;;;5.90;1.05;;;18.70;98.00;;;;;;4980095;28;20560;-83
2022/07/06 07:10:51;;;;;;;3.42;0.55;;;18.80;97.60;;;;;;4980115;28;20054;-83
2022/07/06 07:13:37;;;;;;;3.33;0.40;;;18.90;97.90;;;;;;4996619;28;20054;-84
2022/07/06 07:16:26;;;;;;;5.47;1.38;;;18.70;97.50;;;;;;4983303;28;20553;-85
2022/07/06 07:19:12;;;;;;;5.15;0.40;;;18.60;97.70;;;;;;4981873;28;20403;-82
2022/07/06 07:21:58;;;;;;;4.20;0.85;;;18.90;97.80;;;;;;4996409;28;20062;-83
2022/07/06 07:24:45;;;;;;;4.05;0.50;;;19.00;97.70;;;;;;4997840;28;20042;-84
2022/07/06 07:27:31;;;;;;;5.47;0.90;;;18.80;97.70;;;;;;4983814;28;20405;-83
2022/07/06 07:30:17;;;;;;;5.40;0.65;;;19.10;97.80;;;;;;4978470;28;20086;-85
2022/07/06 07:33:04;;;;;;;3.95;0.50;;;19.30;97.30;;;;;;4951329;28;20077;-86
2022/07/06 07:35:50;;;;;;;3.70;0.45;;;19.40;96.70;;;;;;4976335;28;20170;-84
2022/07/06 07:38:36;;;;;;;8.98;0.70;;;19.40;96.50;;;;;;4979015;28;20066;-84
2022/07/06 07:41:22;;;;;;;4.72;1.02;;;19.40;96.40;;;;;;4994466;28;20408;-83
2022/07/06 07:44:08;;;;;;;3.08;0.40;;;19.50;96.80;;;;;;4994468;28;20367;-84
2022/07/06 07:46:55;;;;;;;2.90;0.60;;;19.70;97.00;;;;;;4976495;28;20057;-85
2022/07/06 07:49:41;;;;;;;3.80;0.55;;;19.80;96.40;;;;;;4995677;28;20062;-85
2022/07/06 07:52:27;;;;;;;3.65;0.52;;;19.90;96.40;;;;;;4992602;28;20069;-85
2022/07/06 07:55:14;;;;;;;4.07;0.65;;;19.90;96.80;;;;;;4964266;28;20141;-81
2022/07/06 07:58:00;;;;;;;9.73;0.95;;;20.20;96.90;;;;;;4976239;28;20191;-85
2022/07/06 08:00:46;;;;;;;2.20;0.43;;;20.20;96.40;;;;;;4992444;28;20054;-84
2022/07/06 08:03:32;;;;;;;6.07;0.75;;;20.50;96.50;;;;;;4980675;28;20128;-83
2022/07/06 08:06:18;;;;;;;5.72;1.00;;;20.30;96.50;;;;;;4979165;28;20046;-85
2022/07/06 08:09:07;;;;;;;5.95;0.77;;;20.30;96.70;;;;;;4993112;28;20050;-83
2022/07/06 08:11:53;;;;;;;4.28;0.60;;;20.60;96.40;;;;;;4993085;28;20091;-84
2022/07/06 08:14:39;;;;;;;2.92;0.45;;;20.60;96.40;;;;;;4993189;28;20046;-85
2022/07/06 08:17:25;;;;;;;6.00;1.10;;;20.30;96.80;;;;;;4993581;28;20046;-85
2022/07/06 08:20:12;;;;;;;2.28;0.50;;;20.00;97.50;;;;;;4964905;28;20050;-83
2022/07/06 08:22:58;;;;;;;1.95;0.47;;;19.90;97.50;;;;;;4979543;28;20188;-83
2022/07/06 08:25:45;;;;;;;3.88;0.68;;;19.90;97.40;;;;;;4993360;28;20038;-85
2022/07/06 08:28:31;;;;;;;5.53;0.90;;;19.70;97.20;;;;;;4975789;28;20085;-84
2022/07/06 08:31:17;;;;;;;2.45;0.50;;;19.60;97.20;;;;;;4993474;28;20053;-84
2022/07/06 08:34:04;;;;;;;3.58;0.55;;;19.80;97.20;;;;;;4994717;28;20129;-82
2022/07/06 08:36:50;;;;;;;3.10;0.60;;;20.10;97.00;;;;;;4994118;28;20394;-85
2022/07/06 08:39:36;;;;;;;3.40;1.17;;;20.10;97.30;;;;;;4993911;28;20050;-84
2022/07/06 08:42:29;;;;;;;2.53;0.60;;;20.10;97.80;;;;;;4992407;28;20450;-83
2022/07/06 08:45:17;;;;;;;3.88;0.55;;;20.00;98.10;;;;;;4978463;28;20481;-84
2022/07/06 08:48:07;;;;;;;3.10;0.68;;;20.00;97.50;;;;;;4975178;28;20506;-83
2022/07/06 08:50:54;;;;;;;3.00;0.90;;;20.20;97.40;;;;;;4975450;28;20061;-84
2022/07/06 08:53:41;;;;;;;3.65;1.25;;;20.20;97.30;;;;;;4962373;28;20050;-85
2022/07/06 08:56:29;;;;;;;3.55;0.90;;;19.90;97.30;;;;;;4975707;28;20086;-84
2022/07/06 08:59:18;;;;;;;3.20;0.45;;;19.90;97.50;;;;;;4993813;28;20054;-84
2022/07/06 09:02:04;;;;;;;2.22;0.70;;;20.20;97.80;;;;;;4993095;28;20042;-85
2022/07/06 09:04:57;;;;;;;6.85;0.80;;;20.70;97.00;;;;;;4992542;28;20054;-84
2022/07/06 09:07:49;;;;;;;4.10;0.60;;;21.00;97.20;;;;;;4996392;28;20058;-83
2022/07/06 09:10:37;;;;;;;4.60;0.60;;;21.20;96.40;;;;;;4992163;28;20058;-83
2022/07/06 09:13:23;;;;;;;2.90;0.85;;;21.00;96.10;;;;;;4992952;28;20046;-85
2022/07/06 09:16:14;;;;;;;6.35;1.00;;;20.80;96.20;;;;;;4974846;28;20054;-84
2022/07/06 09:19:01;;;;;;;7.10;0.88;;;20.70;96.60;;;;;;4991665;28;20137;-84
2022/07/06 09:21:48;;;;;;;4.22;0.90;;;20.50;96.90;;;;;;4995420;28;20051;-85
2022/07/06 09:24:41;;;;;;;5.57;1.20;;;20.50;97.00;;;;;;4993784;28;20046;-85
2022/07/06 09:27:27;;;;;;;2.92;0.70;;;20.50;97.00;;;;;;4975182;28;20057;-84
2022/07/06 09:30:14;;;;;;;5.15;1.10;;;20.60;97.20;;;;;;4974607;28;20494;-85
2022/07/06 09:33:00;;;;;;;5.47;0.55;;;21.00;97.20;;;;;;4992097;28;20133;-84
2022/07/06 09:35:47;;;;;;;4.15;0.57;;;21.10;96.20;;;;;;4992285;28;20058;-85
2022/07/06 09:38:33;;;;;;;5.88;0.80;;;21.30;96.30;;;;;;4976869;28;20057;-84
2022/07/06 09:41:32;;;;;;;4.47;0.40;;;21.40;96.20;;;;;;4964659;28;20054;-84
2022/07/06 09:44:34;;;;;;;5.50;0.50;;;21.50;96.10;;;;;;4992879;28;20133;-85
2022/07/06 09:47:20;;;;;;;4.20;0.88;;;21.70;95.40;;;;;;4992621;28;20402;-84
2022/07/06 09:50:07;;;;;;;7.07;0.95;;;21.50;95.10;;;;;;4960538;28;20046;-86
2022/07/06 09:52:55;;;;;;;4.05;0.57;;;21.70;95.70;;;;;;4991441;28;20054;-83
2022/07/06 09:55:49;;;;;;;2.95;0.60;;;22.10;95.60;;;;;;4992188;28;20058;-85
2022/07/06 09:58:38;;;;;;;6.93;0.40;;;22.20;94.30;;;;;;4974948;28;20068;-84
2022/07/06 10:01:29;;;;;;;3.38;1.23;;;22.30;94.60;;;;;;4974146;28;20159;-86
2022/07/06 10:04:18;;;;;;;3.03;0.50;;;22.50;94.40;;;;;;4991368;28;20197;-84
2022/07/06 10:07:06;;;;;;;1.35;0.38;;;22.30;93.20;;;;;;4975568;28;20042;-84
2022/07/06 10:09:53;;;;;;;4.43;0.60;;;22.50;92.70;;;;;;4977371;28;20050;-85
2022/07/06 10:12:42;;;;;;;4.40;0.70;;;22.60;92.40;;;;;;4979779;28;20050;-84
2022/07/06 10:15:32;;;;;;;4.32;0.63;;;22.40;92.40;;;;;;4991444;28;20459;-84
2022/07/06 10:18:19;;;;;;;2.60;0.60;;;22.30;92.70;;;;;;4972923;28;20072;-85
2022/07/06 10:21:06;;;;;;;2.22;0.38;;;22.30;92.40;;;;;;4992200;28;20051;-83
2022/07/06 10:23:53;;;;;;;4.38;0.45;;;22.70;92.90;;;;;;4974903;28;20129;-83
2022/07/06 10:26:41;;;;;;;2.95;0.60;;;22.70;92.10;;;;;;4961674;28;20058;-84
2022/07/06 10:29:30;;;;;;;2.63;0.50;;;23.20;92.00;;;;;;4991820;28;20054;-85
2022/07/06 10:32:22;;;;;;;2.00;0.57;;;22.90;91.30;;;;;;4979154;28;20094;-84
2022/07/06 10:35:09;;;;;;;2.28;0.50;;;22.50;91.60;;;;;;4993192;28;20093;-84
2022/07/06 10:38:09;;;;;;;4.13;0.60;;;23.00;91.90;;;;;;4973236;28;20417;-82
2022/07/06 10:41:06;;;;;;;3.72;0.60;;;22.60;91.10;;;;;;4961688;28;20060;-83
2022/07/06 10:43:52;;;;;;;2.67;0.30;;;22.60;91.80;;;;;;4960670;28;20410;-83
2022/07/06 10:46:39;;;;;;;1.73;0.65;;;22.80;92.90;;;;;;4992766;28;20504;-85
2022/07/06 10:49:26;;;;;;;2.25;0.45;;;23.20;92.70;;;;;;4975484;28;20577;-83
2022/07/06 10:52:16;;;;;;;4.80;1.30;;;23.20;91.80;;;;;;4990874;28;20055;-83
2022/07/06 10:55:03;;;;;;;1.77;0.35;;;23.80;90.80;;;;;;4991112;28;20054;-84
2022/07/06 10:57:52;;;;;;;4.32;0.90;;;23.70;91.40;;;;;;4990463;28;20050;-85
2022/07/06 11:00:55;;;;;;;4.35;0.95;;;23.90;91.40;;;;;;4991562;28;20140;-87
2022/07/06 11:03:44;;;;;;;3.03;0.55;;;23.80;90.00;;;;;;4993232;28;20062;-84
2022/07/06 11:06:38;;;;;;;4.00;0.80;;;23.60;89.90;;;;;;4994390;28;20506;-84
2022/07/06 11:09:32;;;;;;;2.95;0.55;;;23.70;91.10;;;;;;4994253;28;20042;-86
2022/07/06 11:12:20;;;;;;;2.53;0.70;;;24.00;90.30;;;;;;4964770;28;20046;-84
2022/07/06 11:15:06;;;;;;;1.80;0.43;;;23.70;88.10;;;;;;4997762;28;20174;-85
2022/07/06 11:18:14;;;;;;;1.23;0.32;;;23.70;87.70;;;;;;4978373;28;20058;-83
2022/07/06 11:21:21;;;;;;;3.35;0.75;;;23.80;88.90;;;;;;4978505;28;20054;-84
2022/07/06 11:24:10;;;;;;;1.88;0.45;;;24.10;90.20;;;;;;4994727;28;20069;-84
2022/07/06 11:26:59;;;;;;;4.55;0.82;;;24.40;88.50;;;;;;4982811;28;20054;-84
2022/07/06 11:29:45;;;;;;;2.40;0.50;;;24.00;87.60;;;;;;4996341;28;20056;-84
2022/07/06 11:32:31;;;;;;;3.50;0.50;;;23.50;90.40;;;;;;4981888;28;20527;-85
2022/07/06 11:35:23;;;;;;;3.10;0.57;;;23.90;90.30;;;;;;4978200;28;20058;-85
2022/07/06 11:38:26;;;;;;;3.42;0.55;;;23.60;90.30;;;;;;4994042;28;20578;-85
2022/07/06 11:41:14;;;;;;;2.08;0.47;;;23.60;91.00;;;;;;4993895;28;20054;-85
2022/07/06 11:44:00;;;;;;;3.78;0.70;;;24.10;90.60;;;;;;4980618;28;20128;-85
2022/07/06 11:46:47;;;;;;;2.63;0.40;;;24.20;89.40;;;;;;4994188;28;20054;-86
2022/07/06 11:49:35;;;;;;;2.97;0.30;;;24.30;89.50;;;;;;4979013;28;20058;-81
2022/07/06 11:52:23;;;;;;;2.60;0.65;;;24.40;90.20;;;;;;4995791;28;20089;-83
2022/07/06 11:55:09;;;;;;;3.03;0.50;;;24.10;88.70;;;;;;4993768;28;20062;-83
2022/07/06 11:58:00;;;;;;;0.98;0.30;;;23.70;88.50;;;;;;4994606;28;20384;-83
2022/07/06 12:01:03;;;;;;;5.35;1.15;;;23.60;87.80;;;;;;4964224;28;20455;-82
2022/07/06 12:03:51;;;;;;;1.35;0.28;;;23.50;89.60;;;;;;4997191;28;20046;-84
2022/07/06 12:06:37;;;;;;;2.95;0.35;;;23.50;89.90;;;;;;4980409;28;20054;-82
2022/07/06 12:09:23;;;;;;;5.22;0.55;;;23.40;89.20;;;;;;4975775;28;20065;-84
2022/07/06 12:12:11;;;;;;;2.97;0.65;;;23.30;89.10;;;;;;4976141;28;20556;-83
2022/07/06 12:14:57;;;;;;;2.08;0.70;;;23.30;90.00;;;;;;4995558;28;20058;-85
2022/07/06 12:17:47;;;;;;;2.60;0.50;;;23.60;90.20;;;;;;4976288;28;20100;-84
2022/07/06 12:20:34;;;;;;;2.13;0.40;;;23.40;90.10;;;;;;4994067;28;20495;-84
2022/07/06 12:23:20;;;;;;;1.55;0.40;;;23.60;90.00;;;;;;4980359;28;20119;-84
2022/07/06 12:26:06;;;;;;;2.95;0.77;;;23.30;89.00;;;;;;4963290;28;20054;-84
2022/07/06 12:29:05;;;;;;;3.47;0.70;;;23.20;89.30;;;;;;4991994;28;20081;-84
2022/07/06 12:31:53;;;;;;;2.33;0.73;;;23.00;90.20;;;;;;4974738;28;20081;-85
2022/07/06 12:34:39;;;;;;;2.33;0.70;;;22.80;90.10;;;;;;4962900;28;20478;-83
2022/07/06 12:37:26;;;;;;;0.90;0.30;;;22.70;91.30;;;;;;4976285;28;20050;-85
2022/07/06 12:40:13;;;;;;;4.43;0.82;;;22.50;91.20;;;;;;4949034;28;20050;-84
2022/07/06 12:42:59;;;;;;;3.50;0.70;;;22.40;91.50;;;;;;4978863;28;20453;-85
2022/07/06 12:45:46;;;;;;;4.00;0.68;;;22.10;91.80;;;;;;4974063;28;20104;-82
2022/07/06 12:48:49;;;;;;;2.83;0.50;;;22.10;92.50;;;;;;4977055;28;20117;-85
2022/07/06 12:52:15;;;;;;;2.28;0.60;;;21.90;92.70;;;;;;4962085;28;20528;-87
2022/07/06 12:55:01;;;;;;;2.40;0.70;;;21.80;92.60;;;;;;4951900;28;20061;-82
2022/07/06 12:57:48;;;;;;;3.92;0.50;;;21.80;92.90;;;;;;4993541;28;20454;-85
2022/07/06 13:00:46;;;;;;;3.65;0.45;;;21.90;93.70;;;;;;4991499;28;20189;-84
2022/07/06 13:03:39;;;;;;;1.48;0.47;;;21.90;93.50;;;;;;4992181;28;20047;-84
2022/07/06 13:06:31;;;;;;;3.20;0.80;;;21.50;93.80;;;;;;4991358;28;20442;-83
2022/07/06 13:09:18;;;;;;;2.35;0.40;;;21.40;93.40;;;;;;4992017;28;20108;-84
2022/07/06 13:12:05;;;;;;;2.75;0.63;;;21.30;93.50;;;;;;4994400;28;20042;-86
2022/07/06 13:14:52;;;;;;;3.50;0.70;;;21.50;93.70;;;;;;4975557;28;20112;-83
2022/07/06 13:17:38;;;;;;;1.98;0.65;;;21.30;93.80;;;;;;4975414;28;20053;-83
2022/07/06 13:20:24;;;;;;;5.00;0.65;;;21.00;94.40;;;;;;4977804;28;20446;-84
2022/07/06 13:23:11;;;;;;;5.95;0.98;;;20.80;94.60;;;;;;4992342;28;20049;-84
2022/07/06 13:25:57;;;;;;;3.53;0.85;;;20.70;95.30;;;;;;4974499;28;20062;-82
2022/07/06 13:28:43;;;;;;;5.55;0.80;;;20.30;95.90;;;;;;4976270;28;20518;-84
2022/07/06 13:31:30;;;;;;;4.15;0.90;;;20.00;96.60;;;;;;4991869;28;20491;-84
2022/07/06 13:34:16;;;;;;;5.03;1.40;;;19.80;97.20;;;;;;4974406;28;20065;-82
2022/07/06 13:37:04;;;;;;;2.40;0.60;;;19.50;97.50;;;;;;4990335;28;20057;-86
2022/07/06 13:39:50;;;;;;;4.13;0.80;;;19.30;97.70;;;;;;4991607;28;20518;-85
2022/07/06 13:42:36;;;;;;;2.75;0.75;;;19.20;98.00;;;;;;4991585;28;20051;-84
2022/07/06 13:45:22;;;;;;;2.90;0.60;;;19.20;98.40;;;;;;4977390;28;20142;-85
2022/07/06 13:48:08;;;;;;;3.10;0.80;;;19.30;98.60;;;;;;4975776;28;20050;-84
2022/07/06 13:50:54;;;;;;;4.45;0.70;;;19.40;98.60;;;;;;4991560;28;20133;-85
2022/07/06 13:53:42;;;;;;;4.70;0.98;;;19.50;98.50;;;;;;4992684;28;20046;-86
2022/07/06 13:56:28;;;;;;;4.93;1.00;;;19.50;98.30;;;;;;4974174;28;20078;-85
2022/07/06 13:59:14;;;;;;;3.95;0.77;;;19.50;98.30;;;;;;4991730;28;20081;-87
2022/07/06 14:02:00;;;;;;;5.70;1.15;;;19.40;98.30;;;;;;4994235;28;20561;-85
2022/07/06 14:04:47;;;;;;;4.30;0.90;;;19.20;98.60;;;;;;4974783;28;20065;-83
2022/07/06 14:07:33;;;;;;;4.88;1.40;;;19.30;98.90;;;;;;4991585;28;20046;-86
2022/07/06 14:10:19;;;;;;;2.63;0.70;;;19.30;98.70;;;;;;4974728;28;20046;-84
2022/07/06 14:13:05;;;;;;;6.18;0.70;;;19.00;99.30;;;;;;4992171;28;20131;-84
2022/07/06 14:15:52;;;;;;;3.30;0.85;;;18.90;99.70;;;;;;4992624;28;20058;-86
2022/07/06 14:18:39;;;;;;;6.70;0.95;;;18.80;99.90;;;;;;4976519;28;20064;-83
2022/07/06 14:21:25;;;;;;;5.38;0.95;;;18.60;99.90;;;;;;4973918;28;20058;-86
2022/07/06 14:24:11;;;;;;;5.28;1.00;;;18.40;99.90;;;;;;4991947;28;20581;-82
2022/07/06 14:26:57;;;;;;;5.45;0.98;;;18.30;99.90;;;;;;4961089;28;20090;-85
2022/07/06 14:29:43;;;;;;;8.18;1.27;;;18.20;99.90;;;;;;4974739;28;20141;-85
2022/07/06 14:32:29;;;;;;;6.25;1.20;;;18.30;99.90;;;;;;4991681;28;20540;-85